Time;durP1;ratioP1;P1;durP2;ratioP2;P2;SDS_P1;SDS_P2;PMS_P1;PMS_P2;Temp;Humidity;BMP_temperature;BMP_pressure;BME280_temperature;BME280_humidity;BME280_pressure;Samples;Min_cycle;Max_cycle;Signal;HPM_P1;HPM_P2
2022/03/05 00:00:47;812260.00;2.71;1402.51;88090.00;0.29;153.01;;;;;8.20;1.00;;;;;;2254856;61;2024;-85
2022/03/05 00:03:14;837743.00;2.79;1447.03;88451.00;0.29;153.63;;;;;8.40;1.00;;;;;;2254826;61;1319;-84
2022/03/05 00:05:42;932483.00;3.11;1613.24;53067.00;0.18;92.49;;;;;8.90;1.00;;;;;;2254509;61;1072;-84
2022/03/05 00:08:10;933521.00;3.11;1615.07;89411.00;0.30;155.29;;;;;8.60;1.00;;;;;;2255061;61;1669;-84
2022/03/05 00:10:37;951221.00;3.17;1646.26;0.00;0.00;0.62;;;;;8.60;1.00;;;;;;2253070;61;1209;-84
2022/03/05 00:13:05;1183860.00;3.95;2061.07;119129.00;0.40;206.58;;;;;8.80;1.00;;;;;;2253121;61;2305;-84
2022/03/05 00:15:32;997375.00;3.32;1727.82;97574.00;0.33;169.38;;;;;9.10;1.00;;;;;;2254069;61;1144;-83
2022/03/05 00:17:59;1328638.00;4.43;2324.61;17590.00;0.06;31.10;;;;;9.00;1.00;;;;;;2259921;61;1623;-82
2022/03/05 00:20:26;1093274.00;3.64;1898.40;37397.00;0.12;65.38;;;;;8.40;1.00;;;;;;2260602;61;1991;-83
2022/03/05 00:22:54;1364086.00;4.55;2389.88;91495.00;0.30;158.89;;;;;8.50;1.00;;;;;;2257629;61;1364;-84
2022/03/05 00:25:24;1392990.00;4.64;2443.33;94534.00;0.32;164.14;;;;;8.40;1.00;;;;;;2253851;61;1235;-84
2022/03/05 00:27:51;1489104.00;4.96;2622.63;67709.00;0.23;117.80;;;;;7.40;1.00;;;;;;2255538;61;1180;-82
2022/03/05 00:30:18;1357640.00;4.53;2377.99;114918.00;0.38;199.32;;;;;7.00;1.00;;;;;;2254208;61;1103;-83
2022/03/05 00:32:46;1523634.00;5.08;2687.67;139706.00;0.47;242.06;;;;;7.20;1.00;;;;;;2253542;61;1363;-84
2022/03/05 00:35:13;1390239.00;4.63;2438.23;214162.00;0.71;370.30;;;;;7.10;1.00;;;;;;2253502;61;1017;-84
2022/03/05 00:37:40;1334469.00;4.45;2335.33;133209.00;0.44;230.86;;;;;7.20;1.00;;;;;;2253461;61;1137;-84
2022/03/05 00:40:09;1529356.00;5.10;2698.48;125323.00;0.42;217.26;;;;;7.70;1.00;;;;;;2253671;61;1944;-84
2022/03/05 00:42:38;1709116.00;5.70;3043.15;137929.00;0.46;239.00;;;;;8.10;1.00;;;;;;2252958;61;1257;-82
2022/03/05 00:45:06;1284903.00;4.28;2244.50;160725.00;0.54;278.29;;;;;8.20;1.00;;;;;;2252106;61;1147;-84
2022/03/05 00:47:34;1165260.00;3.88;2027.53;99469.00;0.33;172.66;;;;;8.40;1.00;;;;;;2251641;61;1284;-84
2022/03/05 00:50:01;1253726.00;4.18;2187.66;90975.00;0.30;157.99;;;;;7.90;1.00;;;;;;2251967;61;1132;-84
2022/03/05 00:52:28;1321742.00;4.41;2311.95;128346.00;0.43;222.48;;;;;8.30;1.00;;;;;;2252364;61;1262;-85
2022/03/05 00:54:55;937952.00;3.13;1622.88;102498.00;0.34;177.88;;;;;8.40;1.00;;;;;;2252338;61;1158;-84
2022/03/05 00:57:21;958346.00;3.19;1658.83;102791.00;0.34;178.39;;;;;7.70;1.00;;;;;;2251919;61;1129;-84
2022/03/05 00:59:50;1004906.00;3.35;1741.16;84246.00;0.28;146.37;;;;;7.50;1.00;;;;;;2251809;61;2017;-83
2022/03/05 01:02:17;968632.00;3.23;1676.99;0.00;0.00;0.62;;;;;7.60;1.00;;;;;;2251731;61;1211;-84
2022/03/05 01:04:44;777171.00;2.59;1341.34;80096.00;0.27;139.20;;;;;7.70;1.00;;;;;;2253078;61;1221;-83
2022/03/05 01:07:11;993737.00;3.31;1721.38;81594.00;0.27;141.79;;;;;8.20;1.00;;;;;;2252118;61;1160;-84
2022/03/05 01:09:37;1091486.00;3.64;1895.20;84334.00;0.28;146.52;;;;;8.70;1.00;;;;;;2252028;61;1140;-84
2022/03/05 01:12:05;786332.00;2.62;1357.30;89553.00;0.30;155.54;;;;;8.50;1.00;;;;;;2251800;61;1187;-84
2022/03/05 01:14:32;1356607.00;4.52;2376.08;139815.00;0.47;242.25;;;;;8.80;1.00;;;;;;2252170;61;1101;-83
2022/03/05 01:17:01;1067585.00;3.56;1852.55;114781.00;0.38;199.08;;;;;8.80;1.00;;;;;;2252191;61;1188;-81
2022/03/05 01:19:28;1777379.00;5.92;3176.78;143802.00;0.48;249.12;;;;;9.00;1.00;;;;;;2252138;61;1166;-83
2022/03/05 01:21:54;1520344.00;5.07;2681.46;143854.00;0.48;249.21;;;;;8.90;1.00;;;;;;2251632;61;1944;-83
2022/03/05 01:24:21;118035872.00;393.45;66615748.00;185643.00;0.62;321.21;;;;;8.20;1.00;;;;;;2251897;61;1948;-84
2022/03/05 01:26:48;1224893.00;4.08;2135.29;170013.00;0.57;294.29;;;;;8.10;1.00;;;;;;2252188;61;1046;-84
2022/03/05 01:29:15;1224423.00;4.08;2134.44;218564.00;0.73;377.87;;;;;8.40;1.00;;;;;;2252419;61;1132;-84
2022/03/05 01:31:42;905200.00;3.02;1565.25;89519.00;0.30;155.48;;;;;8.80;1.00;;;;;;2252196;61;1155;-84
2022/03/05 01:34:10;768995.00;2.56;1327.10;93778.00;0.31;162.83;;;;;8.80;1.00;;;;;;2252469;61;1337;-84
2022/03/05 01:36:37;708655.00;2.36;1222.25;83463.00;0.28;145.02;;;;;9.20;1.00;;;;;;2252605;61;1152;-84
2022/03/05 01:39:04;797379.00;2.66;1376.55;99561.00;0.33;172.81;;;;;9.50;1.00;;;;;;2252128;61;1126;-84
2022/03/05 01:41:31;706896.00;2.36;1219.20;96589.00;0.32;167.68;;;;;9.40;1.00;;;;;;2256517;61;2001;-84
2022/03/05 01:43:58;845394.00;2.82;1460.41;86615.00;0.29;150.46;;;;;9.10;1.00;;;;;;2253556;61;1262;-84
2022/03/05 01:46:32;726466.00;2.42;1253.16;96072.00;0.32;166.79;;;;;8.30;1.00;;;;;;2251435;61;1135;-84
2022/03/05 01:48:59;1319901.00;4.40;2308.57;129426.00;0.43;224.34;;;;;8.10;1.00;;;;;;2251861;61;1147;-83
2022/03/05 01:51:28;118404088.00;394.68;67241688.00;155815.00;0.52;269.83;;;;;8.40;1.00;;;;;;2251849;61;1155;-84
2022/03/05 01:53:55;120671608.00;402.24;71183008.00;140116.00;0.47;242.77;;;;;8.80;1.00;;;;;;2252597;61;1344;-82
2022/03/05 01:56:25;118302600.00;394.34;67068776.00;117088760.00;390.30;65023616.00;;;;;8.40;1.00;;;;;;2252143;61;1192;-83
2022/03/05 01:58:52;1332786.00;4.44;2332.23;158665.00;0.53;274.74;;;;;7.80;1.00;;;;;;2251840;61;1230;-84
2022/03/05 02:01:22;1435524.00;4.79;2522.37;166596.00;0.56;288.40;;;;;8.10;1.00;;;;;;2251860;61;2017;-84
2022/03/05 02:03:49;1558187.00;5.19;2753.09;191572.00;0.64;331.42;;;;;8.20;1.00;;;;;;2251964;61;1294;-84
2022/03/05 02:06:16;1533050.00;5.11;2705.46;159773.00;0.53;276.65;;;;;8.50;1.00;;;;;;2252200;61;1089;-84
2022/03/05 02:08:44;1301999.00;4.34;2275.76;92729.00;0.31;161.02;;;;;7.80;1.00;;;;;;2251972;61;1151;-84
2022/03/05 02:11:11;1410341.00;4.70;2475.52;163756.00;0.55;283.51;;;;;8.10;1.00;;;;;;2251589;61;1200;-84
2022/03/05 02:13:38;1555748.00;5.19;2748.46;175849.00;0.59;304.34;;;;;8.50;1.00;;;;;;2251516;61;1338;-83
2022/03/05 02:16:06;1449006.00;4.83;2547.53;127925.00;0.43;221.75;;;;;8.20;1.00;;;;;;2251494;61;1164;-84
2022/03/05 02:18:32;1147304.00;3.82;1995.23;101820.00;0.34;176.71;;;;;8.50;1.00;;;;;;2251201;61;1240;-83
2022/03/05 02:21:01;775048.00;2.58;1337.64;74419.00;0.25;129.40;;;;;8.70;1.00;;;;;;2251647;61;2004;-84
2022/03/05 02:23:28;119053752.00;396.85;68355608.00;84701.00;0.28;147.16;;;;;8.80;1.00;;;;;;2251936;61;1279;-84
2022/03/05 02:25:57;118016672.00;393.39;66583220.00;89224.00;0.30;154.97;;;;;8.30;1.00;;;;;;2251467;61;1127;-84
2022/03/05 02:28:27;119727624.00;399.09;69523992.00;110347.00;0.37;191.43;;;;;8.60;1.00;;;;;;2251760;61;1155;-84
2022/03/05 02:30:55;121573280.00;405.24;72792120.00;156139.00;0.52;270.39;;;;;8.70;1.00;;;;;;2251745;61;1069;-84
2022/03/05 02:33:22;1520313.00;5.07;2681.40;130372.00;0.43;225.97;;;;;9.00;1.00;;;;;;2252719;61;1262;-83
2022/03/05 02:35:49;1570151.00;5.23;2775.83;202995.00;0.68;351.08;;;;;9.00;1.00;;;;;;2252771;61;1134;-83
2022/03/05 02:38:19;1369261.00;4.56;2399.43;115078.00;0.38;199.59;;;;;8.80;1.00;;;;;;2252820;61;1135;-84
2022/03/05 02:40:48;1510265.00;5.03;2662.45;136145.00;0.45;235.92;;;;;8.40;1.00;;;;;;2252061;61;2033;-84
2022/03/05 02:43:15;1586640.00;5.29;2807.23;168121.00;0.56;291.03;;;;;7.60;1.00;;;;;;2252362;61;1344;-84
2022/03/05 02:45:42;1102288.00;3.67;1914.52;95872.00;0.32;166.45;;;;;7.40;1.00;;;;;;2253141;61;1587;-84
2022/03/05 02:48:12;1046974.00;3.49;1815.85;131588.00;0.44;228.07;;;;;8.00;1.00;;;;;;2252517;61;1155;-84
2022/03/05 02:50:40;121287128.00;404.29;72278856.00;119943080.00;399.81;69900360.00;;;;;8.50;1.00;;;;;;2251414;61;1236;-84
2022/03/05 02:53:07;1552412.00;5.17;2742.14;100295.00;0.33;174.08;;;;;8.60;1.00;;;;;;2251968;61;1359;-82
2022/03/05 02:55:36;1550343.00;5.17;2738.21;158694.00;0.53;274.79;;;;;8.30;1.00;;;;;;2251694;61;1117;-83
2022/03/05 02:58:04;1771272.00;5.90;3164.76;214501.00;0.72;370.88;;;;;7.20;1.00;;;;;;2251395;61;1185;-83
2022/03/05 03:00:31;1706722.00;5.69;3038.49;157513.00;0.53;272.75;;;;;7.40;1.00;;;;;;2251636;61;2005;-83
2022/03/05 03:02:58;1737213.00;5.79;3097.96;271250.00;0.90;468.49;;;;;8.10;1.00;;;;;;2250829;61;1981;-82
2022/03/05 03:05:25;118604088.00;395.35;67583312.00;198363.00;0.66;343.11;;;;;8.30;1.00;;;;;;2250844;61;1175;-83
2022/03/05 03:07:53;1400396.00;4.67;2457.06;122222.00;0.41;211.92;;;;;7.00;1.00;;;;;;2250638;61;1227;-83
2022/03/05 03:10:20;1404020.00;4.68;2463.78;149835.00;0.50;259.52;;;;;6.90;1.00;;;;;;2250624;61;2125;-83
2022/03/05 03:12:48;1129035.00;3.76;1962.43;114639.00;0.38;198.83;;;;;7.70;1.00;;;;;;2250563;61;1359;-81
2022/03/05 03:15:16;1379824.00;4.60;2418.96;126072.00;0.42;218.56;;;;;8.30;1.00;;;;;;2250898;61;1239;-83
2022/03/05 03:17:45;1303309.00;4.34;2278.16;189629.00;0.63;328.07;;;;;8.50;1.00;;;;;;2250988;61;1142;-83
2022/03/05 03:20:14;755253.00;2.52;1303.19;84207.00;0.28;146.30;;;;;8.40;1.00;;;;;;2250519;61;1195;-83
2022/03/05 03:22:40;980752.00;3.27;1698.41;115687.00;0.39;200.64;;;;;8.50;1.00;;;;;;2250778;61;1990;-81
2022/03/05 03:25:10;117626360.00;392.09;65924184.00;96256.00;0.32;167.11;;;;;8.30;1.00;;;;;;2251814;61;1091;-83
2022/03/05 03:27:37;120231576.00;400.77;70406408.00;97175.00;0.32;168.70;;;;;8.20;1.00;;;;;;2252475;61;1252;-83
2022/03/05 03:30:09;839545.00;2.80;1450.18;108168.00;0.36;187.67;;;;;7.80;1.00;;;;;;2251726;61;1175;-83
2022/03/05 03:32:36;1200753.00;4.00;2091.58;189904.00;0.63;328.54;;;;;7.80;1.00;;;;;;2251406;61;1454;-83
2022/03/05 03:35:03;118031256.00;393.44;66607924.00;134318.00;0.45;232.77;;;;;7.90;1.00;;;;;;2251071;61;1218;-83
2022/03/05 03:37:31;907892.00;3.03;1569.99;123728.00;0.41;214.51;;;;;8.10;1.00;;;;;;2251368;61;1159;-83
2022/03/05 03:39:59;760080.00;2.53;1311.59;112058.00;0.37;194.38;;;;;7.90;1.00;;;;;;2250991;61;1179;-83
2022/03/05 03:42:27;622004.00;2.07;1072.23;100194.00;0.33;173.91;;;;;8.30;1.00;;;;;;2250992;61;2034;-83
2022/03/05 03:44:55;603991.00;2.01;1041.11;95127.00;0.32;165.16;;;;;8.40;1.00;;;;;;2250885;61;1209;-83
2022/03/05 03:47:24;641523.00;2.14;1105.97;82939.00;0.28;144.11;;;;;8.30;1.00;;;;;;2251297;61;1115;-83
2022/03/05 03:49:51;945827.00;3.15;1636.75;95903.00;0.32;166.50;;;;;8.60;1.00;;;;;;2251650;61;1130;-82
2022/03/05 03:52:19;117972816.00;393.24;66508940.00;93872.00;0.31;162.99;;;;;8.70;1.00;;;;;;2251422;61;1391;-82
2022/03/05 03:54:48;697340.00;2.32;1202.63;93567.00;0.31;162.47;;;;;8.60;1.00;;;;;;2271647;40;2062;-82
2022/03/05 03:57:15;293111.00;0.98;506.08;78170.00;0.26;135.88;;;;;8.60;1.00;;;;;;2260906;61;1141;-82
2022/03/05 03:59:42;293917.00;0.98;507.46;92649.00;0.31;160.88;;;;;8.10;1.00;;;;;;2260678;61;1130;-83
2022/03/05 04:02:09;389352.00;1.30;671.50;96031.00;0.32;166.72;;;;;8.60;1.00;;;;;;2261392;61;2014;-84
2022/03/05 04:04:38;403237.00;1.34;695.37;89596.00;0.30;155.61;;;;;8.50;1.00;;;;;;2261559;61;1274;-83
2022/03/05 04:09:49;526338.00;1.75;907.18;39576.00;0.13;69.15;;;;;8.40;1.00;;;;;;2261842;61;706;-84
2022/03/05 04:12:16;261402.00;0.87;451.56;46653.00;0.16;81.40;;;;;7.80;1.00;;;;;;2262558;61;1723;-83
2022/03/05 04:14:44;26148.00;0.09;45.92;0.00;0.00;0.62;;;;;6.90;1.00;;;;;;2262557;61;1355;-84
2022/03/05 04:17:11;209678.00;0.70;362.58;0.00;0.00;0.62;;;;;5.80;1.00;;;;;;2261918;61;1120;-83
2022/03/05 04:19:39;81613.00;0.27;141.82;0.00;0.00;0.62;;;;;6.50;1.00;;;;;;2262113;61;1072;-83
2022/03/05 04:22:06;129652.00;0.43;224.73;0.00;0.00;0.62;;;;;7.50;1.00;;;;;;2262931;61;1927;-84
2022/03/05 04:24:33;68407.00;0.23;119.01;0.00;0.00;0.62;;;;;8.00;1.00;;;;;;2264734;61;1266;-84
2022/03/05 04:27:00;51432.00;0.17;89.66;0.00;0.00;0.62;;;;;8.20;1.00;;;;;;2264644;61;1296;-83
2022/03/05 04:29:27;223175.00;0.74;385.81;0.00;0.00;0.62;;;;;8.40;1.00;;;;;;2263683;61;1082;-82
2022/03/05 04:31:54;104615.00;0.35;181.54;30683.00;0.10;53.77;;;;;8.50;1.00;;;;;;2264787;61;1186;-83
2022/03/05 04:34:21;63441.00;0.21;110.42;0.00;0.00;0.62;;;;;8.20;1.00;;;;;;2264818;61;1345;-84
2022/03/05 04:36:49;182741.00;0.61;316.21;39130.00;0.13;68.38;;;;;8.10;1.00;;;;;;2263382;61;1070;-84
2022/03/05 04:39:16;2002.00;0.01;4.09;0.00;0.00;0.62;;;;;8.00;1.00;;;;;;2262881;61;1125;-83
2022/03/05 04:41:44;6152.00;0.02;11.28;0.00;0.00;0.62;;;;;8.40;1.00;;;;;;2262854;61;1928;-81
2022/03/05 04:44:11;11824.00;0.04;21.11;0.00;0.00;0.62;;;;;8.70;1.00;;;;;;2262497;61;1348;-82
2022/03/05 04:46:38;24318.00;0.08;42.75;0.00;0.00;0.62;;;;;8.40;1.00;;;;;;2261706;61;1145;-82
2022/03/05 04:49:06;0.00;0.00;0.62;0.00;0.00;0.62;;;;;8.30;1.00;;;;;;2261900;61;1178;-84
2022/03/05 04:51:33;0.00;0.00;0.62;0.00;0.00;0.62;;;;;8.30;1.00;;;;;;2261655;61;1199;-83
2022/03/05 04:54:01;4456.00;0.01;8.34;0.00;0.00;0.62;;;;;8.20;1.00;;;;;;2262501;61;1277;-83
2022/03/05 04:56:28;423275.00;1.41;729.82;39109.00;0.13;68.35;;;;;8.10;1.00;;;;;;2262518;61;1120;-84
2022/03/05 04:58:57;284279.00;0.95;490.89;0.00;0.00;0.62;;;;;8.30;1.00;;;;;;2263011;61;1195;-84
2022/03/05 05:01:24;49601.00;0.17;86.50;0.00;0.00;0.62;;;;;8.10;1.00;;;;;;2263132;61;2006;-84
2022/03/05 05:03:51;86985.00;0.29;151.10;0.00;0.00;0.62;;;;;8.20;1.00;;;;;;2264356;61;1267;-84
2022/03/05 05:06:18;222.00;0.00;1.00;0.00;0.00;0.62;;;;;8.30;1.00;;;;;;2264755;61;1258;-79
2022/03/05 05:08:46;5561.00;0.02;10.26;0.00;0.00;0.62;;;;;8.40;1.00;;;;;;2264723;61;1126;-83
2022/03/05 05:11:15;44494.00;0.15;77.66;0.00;0.00;0.62;;;;;8.40;1.00;;;;;;2264722;61;1345;-83
2022/03/05 05:13:42;32558.00;0.11;57.01;0.00;0.00;0.62;;;;;8.30;1.00;;;;;;2264120;61;1302;-83
2022/03/05 05:16:09;7691.00;0.03;13.95;0.00;0.00;0.62;;;;;8.50;1.00;;;;;;2263145;61;1174;-84
2022/03/05 05:18:36;98577.00;0.33;171.12;0.00;0.00;0.62;;;;;8.80;1.00;;;;;;2261861;61;1086;-84
2022/03/05 05:21:04;23580.00;0.08;41.47;0.00;0.00;0.62;;;;;8.80;1.00;;;;;;2262049;61;2008;-83
2022/03/05 05:23:31;31285.00;0.10;54.81;0.00;0.00;0.62;;;;;8.90;1.00;;;;;;2263167;61;1246;-84
2022/03/05 05:25:58;0.00;0.00;0.62;0.00;0.00;0.62;;;;;8.80;1.00;;;;;;2262236;61;1143;-82
2022/03/05 05:28:27;531918.00;1.77;916.80;139718.00;0.47;242.08;;;;;8.80;1.00;;;;;;2262519;61;1200;-84
2022/03/05 05:30:53;60967.00;0.20;106.15;0.00;0.00;0.62;;;;;8.60;1.00;;;;;;2261658;61;1107;-83
2022/03/05 05:33:21;266212.00;0.89;459.83;51695.00;0.17;90.12;;;;;8.20;1.00;;;;;;2263996;61;1335;-81
2022/03/05 05:35:47;60365.00;0.20;105.11;0.00;0.00;0.62;;;;;8.40;1.00;;;;;;2261876;61;1160;-82
2022/03/05 05:38:14;0.00;0.00;0.62;0.00;0.00;0.62;;;;;8.60;1.00;;;;;;2261722;61;1030;-83
2022/03/05 05:40:41;53050.00;0.18;92.46;0.00;0.00;0.62;;;;;8.60;1.00;;;;;;2261697;61;1122;-82
2022/03/05 05:43:08;13715.00;0.05;24.38;0.00;0.00;0.62;;;;;8.70;1.00;;;;;;2261133;61;1940;-82
2022/03/05 05:45:37;3485.00;0.01;6.66;0.00;0.00;0.62;;;;;8.70;1.00;;;;;;2261716;61;1117;-82
2022/03/05 05:48:04;0.00;0.00;0.62;0.00;0.00;0.62;;;;;8.80;1.00;;;;;;2261536;61;1216;-82
2022/03/05 05:50:31;38637.00;0.13;67.53;0.00;0.00;0.62;;;;;8.60;1.00;;;;;;2262788;61;1171;-81
2022/03/05 05:52:58;37841.00;0.13;66.15;0.00;0.00;0.62;;;;;8.40;1.00;;;;;;2264330;61;1187;-81
2022/03/05 05:55:25;42466.00;0.14;74.15;0.00;0.00;0.62;;;;;8.50;1.00;;;;;;2264119;61;1478;-82
2022/03/05 05:57:51;59278.00;0.20;103.23;0.00;0.00;0.62;;;;;8.70;1.00;;;;;;2263855;61;1050;-82
2022/03/05 06:00:19;4819.00;0.02;8.97;0.00;0.00;0.62;;;;;8.60;1.00;;;;;;2261942;61;1102;-83
2022/03/05 06:02:47;119745.00;0.40;207.64;18102.00;0.06;31.98;;;;;8.60;1.00;;;;;;2261359;61;2016;-83
2022/03/05 06:05:14;0.00;0.00;0.62;0.00;0.00;0.62;;;;;8.10;1.00;;;;;;2261249;61;1266;-82
2022/03/05 06:07:41;17273.00;0.06;30.55;0.00;0.00;0.62;;;;;7.90;1.00;;;;;;2261949;61;1187;-83
2022/03/05 06:10:09;11194.00;0.04;20.02;0.00;0.00;0.62;;;;;7.60;1.00;;;;;;2261910;61;1113;-83
2022/03/05 06:12:37;78062.00;0.26;135.69;0.00;0.00;0.62;;;;;7.20;1.00;;;;;;2262727;61;1096;-83
2022/03/05 06:15:04;65295.00;0.22;113.63;0.00;0.00;0.62;;;;;6.10;1.00;;;;;;2264407;61;2041;-83
2022/03/05 06:17:31;137160.00;0.46;237.67;0.00;0.00;0.62;;;;;5.30;1.00;;;;;;2263316;61;1089;-82
2022/03/05 06:20:00;0.00;0.00;0.62;0.00;0.00;0.62;;;;;5.10;1.00;;;;;;2261460;61;1125;-82
2022/03/05 06:22:27;24063.00;0.08;42.31;0.00;0.00;0.62;;;;;5.20;1.00;;;;;;2264008;61;1993;-83
2022/03/05 06:24:54;45211.00;0.15;78.90;0.00;0.00;0.62;;;;;6.00;1.00;;;;;;2263862;61;1273;-82
2022/03/05 06:27:21;215258.00;0.72;372.18;0.00;0.00;0.62;;;;;6.70;1.00;;;;;;2263593;61;1204;-83
2022/03/05 06:29:47;89785.00;0.30;155.94;0.00;0.00;0.62;;;;;6.90;1.00;;;;;;2261566;61;1127;-83
2022/03/05 06:32:14;0.00;0.00;0.62;0.00;0.00;0.62;;;;;7.40;1.00;;;;;;2263902;61;1149;-83
2022/03/05 06:34:41;193161.00;0.64;334.15;38553.00;0.13;67.38;;;;;7.70;1.00;;;;;;2263557;61;1394;-83
2022/03/05 06:37:10;135415.00;0.45;234.67;0.00;0.00;0.62;;;;;7.50;1.00;;;;;;2261680;61;1063;-83
2022/03/05 06:39:37;92849.00;0.31;161.23;0.00;0.00;0.62;;;;;7.50;1.00;;;;;;2262756;61;1187;-84
2022/03/05 06:42:04;5560.00;0.02;10.26;0.00;0.00;0.62;;;;;7.10;1.00;;;;;;2263975;61;1923;-84
2022/03/05 06:44:31;47609.00;0.16;83.05;0.00;0.00;0.62;;;;;6.70;1.00;;;;;;2263524;61;1287;-83
2022/03/05 06:46:58;59476.00;0.20;103.57;0.00;0.00;0.62;;;;;6.20;1.00;;;;;;2264421;61;1209;-81
2022/03/05 06:49:26;96504.00;0.32;167.54;25232.00;0.08;44.33;;;;;5.20;1.00;;;;;;2260892;61;1211;-81
2022/03/05 06:51:52;108423.00;0.36;188.11;0.00;0.00;0.62;;;;;4.90;1.00;;;;;;2260827;61;1221;-83
2022/03/05 06:54:21;9423.00;0.03;16.95;0.00;0.00;0.62;;;;;4.10;1.00;;;;;;2260405;61;1317;-81
2022/03/05 06:56:48;85793.00;0.29;149.04;0.00;0.00;0.62;;;;;4.10;1.00;;;;;;2259765;61;2220;-80
2022/03/05 06:59:15;106950.00;0.36;185.57;0.00;0.00;0.62;;;;;4.00;1.00;;;;;;2259428;61;1147;-80
2022/03/05 07:01:42;196533.00;0.66;339.96;37438.00;0.12;65.46;;;;;4.00;1.00;;;;;;2259399;61;1919;-81
2022/03/05 07:04:09;136792.00;0.46;237.04;0.00;0.00;0.62;;;;;4.00;1.00;;;;;;2258699;61;1351;-83
2022/03/05 07:06:37;328781.00;1.10;567.39;0.00;0.00;0.62;;;;;3.30;1.00;;;;;;2258859;61;1052;-83
2022/03/05 07:09:04;124706.00;0.42;216.20;0.00;0.00;0.62;;;;;3.10;1.00;;;;;;2259396;61;1030;-83
2022/03/05 07:11:33;83200.00;0.28;144.56;0.00;0.00;0.62;;;;;3.10;1.00;;;;;;2260561;61;1114;-83
2022/03/05 07:14:00;260289.00;0.87;449.65;61805.00;0.21;107.60;;;;;3.00;1.00;;;;;;2258787;61;1269;-83
2022/03/05 07:16:27;214478.00;0.71;370.84;10903.00;0.04;19.51;;;;;3.00;1.00;;;;;;2259719;61;1167;-83
2022/03/05 07:18:54;206947.00;0.69;357.88;18306.00;0.06;32.34;;;;;3.60;1.00;;;;;;2259109;61;2251;-81
2022/03/05 07:21:20;52610.00;0.18;91.70;0.00;0.00;0.62;;;;;4.40;1.00;;;;;;2257628;61;1074;-81
2022/03/05 07:23:47;64150.00;0.21;111.65;0.00;0.00;0.62;;;;;5.70;1.00;;;;;;2263450;61;2015;-83
2022/03/05 07:26:14;19143.00;0.06;33.79;0.00;0.00;0.62;;;;;6.60;1.00;;;;;;2259284;61;1077;-84
2022/03/05 07:28:43;477037.00;1.59;822.30;31362.00;0.10;54.94;;;;;6.90;1.00;;;;;;2260277;61;1293;-83
2022/03/05 07:31:09;178289.00;0.59;308.54;0.00;0.00;0.62;;;;;7.00;1.00;;;;;;2260768;61;1090;-81
2022/03/05 07:33:36;207671.00;0.69;359.13;0.00;0.00;0.62;;;;;6.80;1.00;;;;;;2257401;61;1254;-82
2022/03/05 07:36:04;67823.00;0.23;118.00;0.00;0.00;0.62;;;;;6.60;1.00;;;;;;2257837;61;1612;-81
2022/03/05 07:38:31;96631.00;0.32;167.76;29356.00;0.10;51.47;;;;;5.90;1.00;;;;;;2258511;61;1064;-82
2022/03/05 07:40:58;186459.00;0.62;322.61;0.00;0.00;0.62;;;;;6.10;1.00;;;;;;2258486;61;1147;-81
2022/03/05 07:43:25;48361.00;0.16;84.35;0.00;0.00;0.62;;;;;6.00;1.00;;;;;;2257833;61;1935;-82
2022/03/05 07:45:53;49997.00;0.17;87.18;0.00;0.00;0.62;;;;;5.50;1.00;;;;;;2257887;61;1127;-82
2022/03/05 07:48:21;72246.00;0.24;125.64;0.00;0.00;0.62;;;;;4.80;1.00;;;;;;2257645;61;1140;-82
2022/03/05 07:50:48;131521.00;0.44;227.95;0.00;0.00;0.62;;;;;4.90;1.00;;;;;;2258514;61;1158;-82
2022/03/05 07:53:15;301545.00;1.01;520.58;10204.00;0.03;18.30;;;;;4.80;1.00;;;;;;2258115;61;1347;-82
2022/03/05 07:55:42;206845.00;0.69;357.71;0.00;0.00;0.62;;;;;4.70;1.00;;;;;;2258337;61;1643;-82
2022/03/05 07:58:09;174414.00;0.58;301.87;0.00;0.00;0.62;;;;;4.70;1.00;;;;;;2258033;61;1279;-82
2022/03/05 08:00:36;221659.00;0.74;383.20;0.00;0.00;0.62;;;;;4.70;1.00;;;;;;2258210;61;1001;-82
2022/03/05 08:03:05;180604.00;0.60;312.53;0.00;0.00;0.62;;;;;5.20;1.00;;;;;;2260400;61;2018;-81
2022/03/05 08:05:32;378609.00;1.26;653.03;0.00;0.00;0.62;;;;;4.90;1.00;;;;;;2263377;61;1198;-81
2022/03/05 08:07:58;487275.00;1.62;839.92;0.00;0.00;0.62;;;;;5.10;1.00;;;;;;2263383;61;1143;-81
2022/03/05 08:10:25;34288.00;0.11;60.00;0.00;0.00;0.62;;;;;5.80;1.00;;;;;;2262753;61;1207;-83
2022/03/05 08:12:52;31854.00;0.11;55.79;0.00;0.00;0.62;;;;;6.30;1.00;;;;;;2263153;61;1129;-83
2022/03/05 08:15:19;52644.00;0.18;91.76;0.00;0.00;0.62;;;;;6.10;1.00;;;;;;2263344;61;1258;-82
2022/03/05 08:17:51;102402.00;0.34;177.72;0.00;0.00;0.62;;;;;5.90;1.00;;;;;;2260035;61;1141;-82
2022/03/05 08:20:19;46449.00;0.15;81.04;0.00;0.00;0.62;;;;;6.10;1.00;;;;;;2259327;61;1108;-82
2022/03/05 08:22:47;0.00;0.00;0.62;0.00;0.00;0.62;;;;;6.30;1.00;;;;;;2262304;61;2004;-84
2022/03/05 08:25:14;6226.00;0.02;11.41;0.00;0.00;0.62;;;;;6.90;1.00;;;;;;2262347;61;2223;-83
2022/03/05 08:27:41;35660.00;0.12;62.38;0.00;0.00;0.62;;;;;7.80;1.00;;;;;;2262341;61;1692;-81
2022/03/05 08:30:09;69028.00;0.23;120.08;0.00;0.00;0.62;;;;;7.20;1.00;;;;;;2262149;61;1110;-80
2022/03/05 08:32:36;140607.00;0.47;243.62;0.00;0.00;0.62;;;;;7.00;1.00;;;;;;2263722;61;1197;-83
2022/03/05 08:35:04;167917.00;0.56;290.68;0.00;0.00;0.62;;;;;6.90;1.00;;;;;;2259958;61;2723;-82
2022/03/05 08:37:32;209082.00;0.70;361.56;0.00;0.00;0.62;;;;;7.00;1.00;;;;;;2258317;61;1132;-82
2022/03/05 08:39:59;209413.00;0.70;362.13;0.00;0.00;0.62;;;;;7.20;1.00;;;;;;2259072;61;1133;-82
2022/03/05 08:42:26;149547.00;0.50;259.03;0.00;0.00;0.62;;;;;7.10;1.00;;;;;;2261077;61;1924;-82
2022/03/05 08:44:53;160167.00;0.53;277.33;0.00;0.00;0.62;;;;;6.90;1.00;;;;;;2259949;61;1344;-83
2022/03/05 08:47:20;0.00;0.00;0.62;0.00;0.00;0.62;;;;;6.70;1.00;;;;;;2259334;61;1159;-82
2022/03/05 08:49:47;107654.00;0.36;186.78;0.00;0.00;0.62;;;;;6.60;1.00;;;;;;2260751;61;1676;-83
2022/03/05 08:52:14;70199.00;0.23;122.10;0.00;0.00;0.62;;;;;6.20;1.00;;;;;;2260891;61;1195;-83
2022/03/05 08:54:43;8671.00;0.03;15.65;0.00;0.00;0.62;;;;;5.80;1.00;;;;;;2261305;61;1392;-83
2022/03/05 08:57:11;58852.00;0.20;102.49;0.00;0.00;0.62;;;;;5.80;1.00;;;;;;2262742;61;1093;-82
2022/03/05 08:59:38;318570.00;1.06;549.84;134285.00;0.45;232.72;;;;;5.30;1.00;;;;;;2260253;61;1143;-83
2022/03/05 09:02:05;107884.00;0.36;187.18;0.00;0.00;0.62;;;;;5.30;1.00;;;;;;2260549;61;1997;-83
2022/03/05 09:04:33;334689.00;1.12;577.55;75120.00;0.25;130.61;;;;;5.40;1.00;;;;;;2261132;61;1355;-83
2022/03/05 09:07:00;105278.00;0.35;182.68;0.00;0.00;0.62;;;;;5.30;1.00;;;;;;2259872;61;1163;-82
2022/03/05 09:09:27;82493.00;0.27;143.34;0.00;0.00;0.62;;;;;5.00;1.00;;;;;;2258854;61;1143;-83
2022/03/05 09:11:55;61452.00;0.20;106.99;0.00;0.00;0.62;;;;;5.50;1.00;;;;;;2258637;61;1506;-80
2022/03/05 09:14:22;74149.00;0.25;128.93;0.00;0.00;0.62;;;;;6.30;1.00;;;;;;2261121;61;1270;-83
2022/03/05 09:16:49;24313.00;0.08;42.74;0.00;0.00;0.62;;;;;6.40;1.00;;;;;;2261206;61;1239;-83
2022/03/05 09:19:16;17126.00;0.06;30.29;0.00;0.00;0.62;;;;;7.20;1.00;;;;;;2259863;61;1140;-82
2022/03/05 09:21:43;148662.00;0.50;257.50;0.00;0.00;0.62;;;;;7.60;1.00;;;;;;2260639;61;1088;-83
2022/03/05 09:24:10;20245.00;0.07;35.69;0.00;0.00;0.62;;;;;6.90;1.00;;;;;;2259083;61;2038;-82
2022/03/05 09:26:37;71040.00;0.24;123.56;0.00;0.00;0.62;;;;;6.70;1.00;;;;;;2262734;61;1124;-83
2022/03/05 09:29:05;156424.00;0.52;270.88;0.00;0.00;0.62;;;;;7.00;1.00;;;;;;2259657;61;1168;-82
2022/03/05 09:31:32;225446.00;0.75;389.71;0.00;0.00;0.62;;;;;6.80;1.00;;;;;;2259759;61;1542;-83
2022/03/05 09:33:59;435544.00;1.45;750.92;92999.00;0.31;161.49;;;;;6.10;1.00;;;;;;2258330;61;1357;-83
2022/03/05 09:36:26;6005.00;0.02;11.03;0.00;0.00;0.62;;;;;6.50;1.00;;;;;;2258799;61;1363;-83
2022/03/05 09:38:53;39673.00;0.13;69.32;0.00;0.00;0.62;;;;;7.30;1.00;;;;;;2259459;61;1143;-83
2022/03/05 09:41:20;69340.00;0.23;120.62;0.00;0.00;0.62;;;;;7.80;1.00;;;;;;2259080;61;1172;-83
2022/03/05 09:43:47;107648.00;0.36;186.77;0.00;0.00;0.62;;;;;7.80;1.00;;;;;;2258862;61;1922;-83
2022/03/05 09:46:19;5634.00;0.02;10.38;0.00;0.00;0.62;;;;;7.50;1.00;;;;;;2259347;61;1144;-83
2022/03/05 09:48:48;70720.00;0.24;123.00;0.00;0.00;0.62;;;;;7.70;1.00;;;;;;2259796;61;1144;-84